IGO631J VAAH-VEBN
Flight info
| Callsign | IGO631J |
|---|---|
| Flight time | 1h 28m |
| Altitude | 39000 |
| Route | BODAR1A BODAR G590 BBN |
| Aircraft | A20N/M-SDE2E3FGHIRWXY/LB1 |
Departure
| Time | 2026-04-27 15:24 |
|---|---|
| Airport | Sardar Vallabh Patel International Airport (VAAH) |
Arrival
| Time | 2026-04-27 16:53 |
|---|---|
| Airport | Lal Bahadur Shastri International Airport (VEBN) |
| Time | Latitude | Longitude | Altitude | Speed | Heading |
|---|---|---|---|---|---|
| 2026-04-27 15:06 | 23.07112 | 72.61939 | 193 ft | 0 kts | 46° |
| 2026-04-27 15:08 | 23.07101 | 72.61927 | 207 ft | 2 kts | 46° |
| 2026-04-27 15:08 | 23.07089 | 72.61914 | 198 ft | 2 kts | 47° |
| 2026-04-27 15:09 | 23.07079 | 72.61900 | 201 ft | 2 kts | 50° |
| 2026-04-27 15:09 | 23.07069 | 72.61886 | 207 ft | 2 kts | 65° |
| 2026-04-27 15:09 | 23.07069 | 72.61869 | 204 ft | 2 kts | 129° |
| 2026-04-27 15:09 | 23.07073 | 72.61864 | 206 ft | 0 kts | 136° |
| 2026-04-27 15:16 | 23.07072 | 72.61865 | 206 ft | 2 kts | 135° |
| 2026-04-27 15:16 | 23.07031 | 72.61912 | 206 ft | 14 kts | 130° |
| 2026-04-27 15:16 | 23.06978 | 72.62020 | 192 ft | 18 kts | 108° |
| 2026-04-27 15:17 | 23.06913 | 72.62153 | 199 ft | 21 kts | 133° |
| 2026-04-27 15:17 | 23.06858 | 72.62212 | 208 ft | 0 kts | 134° |
| 2026-04-27 15:17 | 23.06847 | 72.62262 | 196 ft | 13 kts | 73° |
| 2026-04-27 15:17 | 23.06921 | 72.62341 | 201 ft | 20 kts | 46° |
| 2026-04-27 15:18 | 23.07036 | 72.62466 | 201 ft | 24 kts | 44° |
| 2026-04-27 15:18 | 23.07177 | 72.62615 | 206 ft | 32 kts | 44° |
| 2026-04-27 15:18 | 23.07344 | 72.62794 | 200 ft | 35 kts | 45° |
| 2026-04-27 15:18 | 23.07526 | 72.62987 | 200 ft | 38 kts | 45° |
| 2026-04-27 15:19 | 23.07666 | 72.63160 | 207 ft | 22 kts | 70° |
| 2026-04-27 15:19 | 23.07692 | 72.63256 | 196 ft | 5 kts | 73° |
| 2026-04-27 15:19 | 23.07692 | 72.63257 | 196 ft | 0 kts | 72° |
| 2026-04-27 15:19 | 23.07695 | 72.63270 | 202 ft | 7 kts | 75° |
| 2026-04-27 15:20 | 23.07717 | 72.63358 | 200 ft | 14 kts | 73° |
| 2026-04-27 15:20 | 23.07761 | 72.63483 | 209 ft | 23 kts | 59° |
| 2026-04-27 15:20 | 23.07938 | 72.63677 | 197 ft | 33 kts | 46° |
| 2026-04-27 15:20 | 23.08127 | 72.63878 | 207 ft | 42 kts | 45° |
| 2026-04-27 15:21 | 23.08347 | 72.64109 | 207 ft | 44 kts | 45° |
| 2026-04-27 15:21 | 23.08486 | 72.64264 | 211 ft | 43 kts | 42° |
| 2026-04-27 15:21 | 23.08700 | 72.64487 | 202 ft | 40 kts | 44° |
| 2026-04-27 15:21 | 23.08834 | 72.64600 | 199 ft | 8 kts | 48° |
| 2026-04-27 15:22 | 23.08827 | 72.64617 | 211 ft | 1 kts | 193° |
| 2026-04-27 15:22 | 23.08815 | 72.64604 | 207 ft | 7 kts | 224° |
| 2026-04-27 15:22 | 23.08806 | 72.64595 | 208 ft | 0 kts | 223° |
| 2026-04-27 15:23 | 23.08797 | 72.64587 | 208 ft | 9 kts | 223° |
| 2026-04-27 15:24 | 23.08602 | 72.64383 | 205 ft | 70 kts | 225° |
| 2026-04-27 15:24 | 23.08110 | 72.63856 | 203 ft | 126 kts | 225° |
| 2026-04-27 15:24 | 23.07371 | 72.63086 | 243 ft | 161 kts | 222° |
| 2026-04-27 15:24 | 23.06608 | 72.62332 | 913 ft | 144 kts | 221° |
| 2026-04-27 15:25 | 23.05807 | 72.61703 | 1308 ft | 155 kts | 204° |
| 2026-04-27 15:25 | 23.04661 | 72.61882 | 1458 ft | 182 kts | 156° |
| 2026-04-27 15:25 | 23.03590 | 72.62663 | 1832 ft | 190 kts | 150° |
| 2026-04-27 15:25 | 23.02450 | 72.63535 | 2067 ft | 211 kts | 151° |
| 2026-04-27 15:26 | 23.01162 | 72.64449 | 2272 ft | 230 kts | 152° |
| 2026-04-27 15:26 | 22.99754 | 72.65385 | 2405 ft | 250 kts | 153° |
| 2026-04-27 15:26 | 22.98193 | 72.66382 | 2556 ft | 268 kts | 154° |
| 2026-04-27 15:26 | 22.96539 | 72.67419 | 2762 ft | 279 kts | 154° |
| 2026-04-27 15:27 | 22.94899 | 72.68603 | 3042 ft | 288 kts | 141° |
| 2026-04-27 15:27 | 22.93442 | 72.70113 | 3332 ft | 292 kts | 137° |
| 2026-04-27 15:27 | 22.91996 | 72.71696 | 3650 ft | 295 kts | 137° |
| 2026-04-27 15:27 | 22.90573 | 72.73261 | 4022 ft | 295 kts | 137° |
| 2026-04-27 15:28 | 22.89124 | 72.74846 | 4418 ft | 296 kts | 137° |
| 2026-04-27 15:28 | 22.87764 | 72.76531 | 4786 ft | 299 kts | 123° |
| 2026-04-27 15:28 | 22.87013 | 72.78627 | 5154 ft | 301 kts | 104° |
| 2026-04-27 15:28 | 22.86585 | 72.80852 | 5557 ft | 301 kts | 100° |
| 2026-04-27 15:29 | 22.86219 | 72.83090 | 5938 ft | 302 kts | 100° |
| 2026-04-27 15:29 | 22.85851 | 72.85345 | 6290 ft | 304 kts | 100° |
| 2026-04-27 15:29 | 22.85468 | 72.87612 | 6650 ft | 305 kts | 101° |
| 2026-04-27 15:29 | 22.85074 | 72.89881 | 7027 ft | 306 kts | 101° |
| 2026-04-27 15:30 | 22.84677 | 72.92124 | 7423 ft | 306 kts | 101° |
| 2026-04-27 15:30 | 22.84270 | 72.94399 | 7805 ft | 307 kts | 101° |
| 2026-04-27 15:30 | 22.83860 | 72.96676 | 8192 ft | 309 kts | 101° |
| 2026-04-27 15:30 | 22.83445 | 72.98968 | 8589 ft | 310 kts | 101° |
| 2026-04-27 15:31 | 22.83034 | 73.01236 | 8988 ft | 311 kts | 101° |
| 2026-04-27 15:31 | 22.82609 | 73.03573 | 9381 ft | 312 kts | 101° |
| 2026-04-27 15:31 | 22.82193 | 73.05861 | 9767 ft | 313 kts | 101° |
| 2026-04-27 15:31 | 22.81766 | 73.08206 | 9960 ft | 322 kts | 101° |
| 2026-04-27 15:32 | 22.81325 | 73.10634 | 10113 ft | 337 kts | 101° |
| 2026-04-27 15:32 | 22.80861 | 73.13203 | 10347 ft | 356 kts | 101° |
| 2026-04-27 15:32 | 22.80379 | 73.15895 | 10670 ft | 369 kts | 101° |
| 2026-04-27 15:32 | 22.79886 | 73.18647 | 11189 ft | 374 kts | 101° |
| 2026-04-27 15:33 | 22.79387 | 73.21418 | 11789 ft | 376 kts | 101° |
| 2026-04-27 15:33 | 22.78885 | 73.24196 | 12399 ft | 378 kts | 101° |
| 2026-04-27 15:33 | 22.78375 | 73.27001 | 13021 ft | 380 kts | 101° |
| 2026-04-27 15:33 | 22.77862 | 73.29819 | 13615 ft | 382 kts | 101° |
| 2026-04-27 15:34 | 22.77342 | 73.32664 | 14146 ft | 385 kts | 101° |
| 2026-04-27 15:34 | 22.76826 | 73.35479 | 14655 ft | 388 kts | 101° |
| 2026-04-27 15:34 | 22.76298 | 73.38360 | 15200 ft | 391 kts | 101° |
| 2026-04-27 15:34 | 22.75764 | 73.41266 | 15743 ft | 394 kts | 101° |
| 2026-04-27 15:35 | 22.75225 | 73.44198 | 16295 ft | 397 kts | 101° |
| 2026-04-27 15:35 | 22.74683 | 73.47140 | 16848 ft | 400 kts | 101° |
| 2026-04-27 15:35 | 22.74136 | 73.50106 | 17387 ft | 403 kts | 101° |
| 2026-04-27 15:35 | 22.73582 | 73.53103 | 17908 ft | 406 kts | 101° |
| 2026-04-27 15:36 | 22.73027 | 73.56108 | 18354 ft | 409 kts | 101° |
| 2026-04-27 15:36 | 22.72472 | 73.59105 | 18773 ft | 411 kts | 101° |
| 2026-04-27 15:36 | 22.71906 | 73.62160 | 19217 ft | 414 kts | 101° |
| 2026-04-27 15:36 | 22.71336 | 73.65236 | 19652 ft | 416 kts | 101° |
| 2026-04-27 15:37 | 22.70763 | 73.68323 | 20078 ft | 419 kts | 101° |
| 2026-04-27 15:37 | 22.70185 | 73.71430 | 20540 ft | 422 kts | 101° |
| 2026-04-27 15:37 | 22.69613 | 73.74504 | 20964 ft | 425 kts | 101° |
| 2026-04-27 15:37 | 22.69026 | 73.77655 | 21414 ft | 428 kts | 101° |
| 2026-04-27 15:38 | 22.68435 | 73.80825 | 21868 ft | 431 kts | 101° |
| 2026-04-27 15:38 | 22.67837 | 73.84027 | 22336 ft | 434 kts | 101° |
| 2026-04-27 15:38 | 22.67239 | 73.87228 | 22800 ft | 437 kts | 101° |
| 2026-04-27 15:38 | 22.66630 | 73.90485 | 23238 ft | 440 kts | 101° |
| 2026-04-27 15:39 | 22.66019 | 73.93749 | 23640 ft | 443 kts | 101° |
| 2026-04-27 15:39 | 22.65411 | 73.96992 | 24030 ft | 446 kts | 101° |
| 2026-04-27 15:39 | 22.64791 | 74.00299 | 24427 ft | 448 kts | 101° |
| 2026-04-27 15:39 | 22.64169 | 74.03614 | 24808 ft | 451 kts | 101° |
| 2026-04-27 15:40 | 22.63543 | 74.06944 | 25202 ft | 453 kts | 101° |
| 2026-04-27 15:40 | 22.62911 | 74.10301 | 25586 ft | 455 kts | 101° |
| 2026-04-27 15:40 | 22.62276 | 74.13669 | 25942 ft | 457 kts | 101° |
| 2026-04-27 15:40 | 22.61636 | 74.17062 | 26305 ft | 460 kts | 101° |
| 2026-04-27 15:41 | 22.61051 | 74.20428 | 26649 ft | 462 kts | 98° |
| 2026-04-27 15:41 | 22.60768 | 74.23899 | 26984 ft | 464 kts | 90° |
| 2026-04-27 15:41 | 22.60846 | 74.27396 | 27322 ft | 466 kts | 86° |
| 2026-04-27 15:41 | 22.61091 | 74.30912 | 27658 ft | 468 kts | 84° |
| 2026-04-27 15:42 | 22.61411 | 74.34433 | 27986 ft | 470 kts | 83° |
| 2026-04-27 15:42 | 22.61751 | 74.37963 | 28309 ft | 472 kts | 83° |
| 2026-04-27 15:42 | 22.62080 | 74.41473 | 28620 ft | 474 kts | 84° |
| 2026-04-27 15:42 | 22.62392 | 74.45032 | 28928 ft | 476 kts | 84° |
| 2026-04-27 15:43 | 22.62685 | 74.48622 | 29237 ft | 478 kts | 84° |
| 2026-04-27 15:43 | 22.62960 | 74.52208 | 29626 ft | 478 kts | 85° |
| 2026-04-27 15:43 | 22.63219 | 74.55759 | 30037 ft | 477 kts | 85° |
| 2026-04-27 15:43 | 22.63471 | 74.59342 | 30339 ft | 478 kts | 85° |
| 2026-04-27 15:44 | 22.63719 | 74.62941 | 30564 ft | 480 kts | 85° |
| 2026-04-27 15:44 | 22.63966 | 74.66558 | 30815 ft | 482 kts | 85° |
| 2026-04-27 15:44 | 22.64213 | 74.70181 | 31076 ft | 484 kts | 85° |
| 2026-04-27 15:44 | 22.64462 | 74.73828 | 31337 ft | 485 kts | 85° |
| 2026-04-27 15:45 | 22.64711 | 74.77469 | 31588 ft | 487 kts | 85° |
| 2026-04-27 15:45 | 22.64961 | 74.81135 | 31855 ft | 489 kts | 85° |
| 2026-04-27 15:45 | 22.65212 | 74.84818 | 32102 ft | 490 kts | 85° |
| 2026-04-27 15:45 | 22.65460 | 74.88466 | 32358 ft | 492 kts | 85° |
| 2026-04-27 15:46 | 22.65711 | 74.92172 | 32602 ft | 494 kts | 85° |
| 2026-04-27 15:46 | 22.65962 | 74.95898 | 32848 ft | 495 kts | 85° |
| 2026-04-27 15:46 | 22.66213 | 74.99625 | 33093 ft | 497 kts | 85° |
| 2026-04-27 15:46 | 22.66464 | 75.03367 | 33334 ft | 499 kts | 86° |
| 2026-04-27 15:47 | 22.66717 | 75.07141 | 33578 ft | 500 kts | 86° |
| 2026-04-27 15:47 | 22.66964 | 75.10856 | 33802 ft | 502 kts | 86° |
| 2026-04-27 15:47 | 22.67215 | 75.14637 | 34026 ft | 503 kts | 86° |
| 2026-04-27 15:47 | 22.67465 | 75.18416 | 34290 ft | 503 kts | 86° |
| 2026-04-27 15:48 | 22.67714 | 75.22196 | 34576 ft | 502 kts | 86° |
| 2026-04-27 15:48 | 22.67961 | 75.25969 | 34846 ft | 501 kts | 86° |
| 2026-04-27 15:48 | 22.68206 | 75.29731 | 35102 ft | 501 kts | 86° |
| 2026-04-27 15:49 | 22.68692 | 75.37248 | 35586 ft | 500 kts | 86° |
| 2026-04-27 15:49 | 22.68932 | 75.40976 | 35810 ft | 500 kts | 86° |
| 2026-04-27 15:49 | 22.69173 | 75.44728 | 36034 ft | 500 kts | 86° |
| 2026-04-27 15:49 | 22.69414 | 75.48492 | 36246 ft | 500 kts | 86° |
| 2026-04-27 15:50 | 22.69654 | 75.52253 | 36463 ft | 500 kts | 86° |
| 2026-04-27 15:50 | 22.69893 | 75.56006 | 36676 ft | 500 kts | 86° |
| 2026-04-27 15:50 | 22.70131 | 75.59753 | 36886 ft | 499 kts | 86° |
| 2026-04-27 15:50 | 22.70368 | 75.63518 | 37098 ft | 499 kts | 86° |
| 2026-04-27 15:51 | 22.70605 | 75.67271 | 37308 ft | 499 kts | 86° |
| 2026-04-27 15:51 | 22.70840 | 75.71022 | 37516 ft | 499 kts | 86° |
| 2026-04-27 15:51 | 22.71091 | 75.74765 | 37708 ft | 498 kts | 83° |
| 2026-04-27 15:51 | 22.71653 | 75.78431 | 37817 ft | 498 kts | 74° |
| 2026-04-27 15:52 | 22.72670 | 75.82002 | 37828 ft | 496 kts | 69° |
| 2026-04-27 15:52 | 22.75164 | 75.88980 | 37828 ft | 495 kts | 65° |
| 2026-04-27 15:53 | 22.77816 | 75.95832 | 37835 ft | 495 kts | 65° |
| 2026-04-27 15:53 | 22.80461 | 76.02735 | 37835 ft | 495 kts | 66° |
| 2026-04-27 15:54 | 22.83060 | 76.09668 | 37830 ft | 495 kts | 66° |
| 2026-04-27 15:54 | 22.85615 | 76.16568 | 37829 ft | 495 kts | 66° |
| 2026-04-27 15:55 | 22.88173 | 76.23508 | 37826 ft | 495 kts | 66° |
| 2026-04-27 15:55 | 22.90728 | 76.30445 | 37821 ft | 495 kts | 66° |
| 2026-04-27 15:56 | 22.93270 | 76.37355 | 37819 ft | 495 kts | 66° |
| 2026-04-27 15:56 | 22.95826 | 76.44312 | 37812 ft | 495 kts | 66° |
| 2026-04-27 15:57 | 22.98374 | 76.51258 | 37808 ft | 495 kts | 66° |
| 2026-04-27 15:57 | 23.00909 | 76.58175 | 37801 ft | 495 kts | 66° |
| 2026-04-27 15:58 | 23.03459 | 76.65148 | 37789 ft | 495 kts | 66° |
| 2026-04-27 15:58 | 23.05990 | 76.72075 | 37788 ft | 495 kts | 66° |
| 2026-04-27 15:59 | 23.08515 | 76.79001 | 37789 ft | 495 kts | 66° |
| 2026-04-27 15:59 | 23.11062 | 76.85996 | 37778 ft | 495 kts | 66° |
| 2026-04-27 16:00 | 23.13575 | 76.92911 | 37778 ft | 495 kts | 66° |
| 2026-04-27 16:00 | 23.16108 | 76.99881 | 37777 ft | 495 kts | 66° |
| 2026-04-27 16:01 | 23.18651 | 77.06798 | 37776 ft | 495 kts | 66° |
| 2026-04-27 16:01 | 23.21218 | 77.13750 | 37773 ft | 495 kts | 66° |
| 2026-04-27 16:02 | 23.23786 | 77.20713 | 37765 ft | 494 kts | 66° |
| 2026-04-27 16:02 | 23.26328 | 77.27622 | 37778 ft | 494 kts | 66° |
| 2026-04-27 16:03 | 23.29120 | 77.34445 | 37779 ft | 492 kts | 58° |
| 2026-04-27 16:03 | 23.32619 | 77.40836 | 37771 ft | 490 kts | 55° |
| 2026-04-27 16:04 | 23.36307 | 77.47026 | 37774 ft | 490 kts | 54° |
| 2026-04-27 16:04 | 23.40083 | 77.53209 | 37764 ft | 489 kts | 53° |
| 2026-04-27 16:05 | 23.43848 | 77.59378 | 37759 ft | 489 kts | 54° |
| 2026-04-27 16:05 | 23.47608 | 77.65572 | 37746 ft | 489 kts | 54° |
| 2026-04-27 16:06 | 23.50712 | 77.70707 | 37745 ft | 489 kts | 54° |
| 2026-04-27 16:06 | 23.55055 | 77.77907 | 37740 ft | 488 kts | 54° |
| 2026-04-27 16:07 | 23.58786 | 77.84100 | 37745 ft | 488 kts | 54° |
| 2026-04-27 16:07 | 23.62495 | 77.90265 | 37743 ft | 488 kts | 54° |
| 2026-04-27 16:08 | 23.65614 | 77.95454 | 37751 ft | 488 kts | 54° |
| 2026-04-27 16:08 | 23.69312 | 78.01613 | 37747 ft | 488 kts | 54° |
| 2026-04-27 16:09 | 23.73033 | 78.07818 | 37748 ft | 488 kts | 54° |
| 2026-04-27 16:09 | 23.78614 | 78.17139 | 37738 ft | 488 kts | 54° |
| 2026-04-27 16:10 | 23.86032 | 78.29555 | 37743 ft | 489 kts | 54° |
| 2026-04-27 16:11 | 23.91611 | 78.38912 | 37747 ft | 489 kts | 54° |
| 2026-04-27 16:12 | 23.97160 | 78.48238 | 37750 ft | 489 kts | 54° |
| 2026-04-27 16:13 | 24.02702 | 78.57580 | 37749 ft | 488 kts | 55° |
| 2026-04-27 16:13 | 24.08230 | 78.66980 | 37750 ft | 488 kts | 55° |
| 2026-04-27 16:14 | 24.15550 | 78.79471 | 37779 ft | 487 kts | 55° |
| 2026-04-27 16:15 | 24.22838 | 78.91935 | 37775 ft | 486 kts | 55° |
| 2026-04-27 16:16 | 24.30130 | 79.04433 | 37770 ft | 485 kts | 55° |
| 2026-04-27 16:17 | 24.37384 | 79.16899 | 37763 ft | 485 kts | 55° |
| 2026-04-27 16:18 | 24.44610 | 79.29350 | 37754 ft | 484 kts | 55° |
| 2026-04-27 16:19 | 24.48200 | 79.35549 | 37755 ft | 484 kts | 55° |
| 2026-04-27 16:20 | 24.55416 | 79.48033 | 37744 ft | 483 kts | 55° |
| 2026-04-27 16:21 | 24.60813 | 79.57391 | 37744 ft | 483 kts | 55° |
| 2026-04-27 16:22 | 24.67972 | 79.69831 | 37914 ft | 484 kts | 55° |
| 2026-04-27 16:22 | 24.71587 | 79.76126 | 38321 ft | 483 kts | 55° |
| 2026-04-27 16:22 | 24.73381 | 79.79254 | 38486 ft | 483 kts | 55° |
| 2026-04-27 16:23 | 24.75158 | 79.82354 | 38627 ft | 484 kts | 55° |
| 2026-04-27 16:23 | 24.78731 | 79.88634 | 38717 ft | 484 kts | 58° |
| 2026-04-27 16:24 | 24.81245 | 79.95508 | 38719 ft | 486 kts | 73° |
| 2026-04-27 16:25 | 24.84392 | 80.10024 | 38714 ft | 487 kts | 76° |
| 2026-04-27 16:26 | 24.87521 | 80.24496 | 38709 ft | 486 kts | 75° |
| 2026-04-27 16:27 | 24.90728 | 80.38908 | 38708 ft | 485 kts | 75° |
| 2026-04-27 16:28 | 24.94727 | 80.56968 | 38699 ft | 486 kts | 75° |
| 2026-04-27 16:29 | 24.98711 | 80.75095 | 38693 ft | 486 kts | 75° |
| 2026-04-27 16:30 | 25.01876 | 80.89575 | 38689 ft | 487 kts | 75° |
| 2026-04-27 16:31 | 25.05899 | 81.07697 | 38675 ft | 487 kts | 75° |
| 2026-04-27 16:32 | 25.08317 | 81.18579 | 38671 ft | 488 kts | 75° |
| 2026-04-27 16:33 | 25.10734 | 81.29518 | 38666 ft | 488 kts | 75° |
| 2026-04-27 16:33 | 25.12328 | 81.36761 | 38663 ft | 488 kts | 75° |
| 2026-04-27 16:34 | 25.13934 | 81.44064 | 38653 ft | 488 kts | 75° |
| 2026-04-27 16:34 | 25.15556 | 81.51239 | 38094 ft | 479 kts | 74° |
| 2026-04-27 16:35 | 25.16374 | 81.54787 | 37168 ft | 486 kts | 74° |
| 2026-04-27 16:35 | 25.17212 | 81.58428 | 36188 ft | 494 kts | 74° |
| 2026-04-27 16:35 | 25.18910 | 81.65881 | 34495 ft | 503 kts | 75° |
| 2026-04-27 16:36 | 25.19761 | 81.69649 | 33554 ft | 509 kts | 75° |
| 2026-04-27 16:36 | 25.20603 | 81.73453 | 32908 ft | 506 kts | 75° |
| 2026-04-27 16:36 | 25.21424 | 81.77204 | 32505 ft | 497 kts | 75° |
| 2026-04-27 16:36 | 25.22217 | 81.80833 | 31965 ft | 492 kts | 75° |
| 2026-04-27 16:37 | 25.23042 | 81.84499 | 31102 ft | 493 kts | 74° |
| 2026-04-27 16:37 | 25.23883 | 81.88191 | 29981 ft | 492 kts | 74° |
| 2026-04-27 16:37 | 25.24717 | 81.91852 | 28667 ft | 493 kts | 74° |
| 2026-04-27 16:37 | 25.25552 | 81.95536 | 27687 ft | 493 kts | 74° |
| 2026-04-27 16:38 | 25.26383 | 81.99223 | 26928 ft | 495 kts | 74° |
| 2026-04-27 16:38 | 25.27201 | 82.02874 | 26204 ft | 493 kts | 74° |
| 2026-04-27 16:38 | 25.28017 | 82.06532 | 25500 ft | 489 kts | 74° |
| 2026-04-27 16:38 | 25.28824 | 82.10154 | 24802 ft | 484 kts | 74° |
| 2026-04-27 16:39 | 25.29630 | 82.13766 | 24112 ft | 478 kts | 74° |
| 2026-04-27 16:39 | 25.30421 | 82.17312 | 23452 ft | 474 kts | 74° |
| 2026-04-27 16:39 | 25.31207 | 82.20831 | 22712 ft | 469 kts | 74° |
| 2026-04-27 16:39 | 25.31986 | 82.24316 | 21951 ft | 465 kts | 74° |
| 2026-04-27 16:40 | 25.32724 | 82.27656 | 21227 ft | 462 kts | 74° |
| 2026-04-27 16:40 | 25.33472 | 82.31102 | 20512 ft | 461 kts | 74° |
| 2026-04-27 16:40 | 25.34210 | 82.34544 | 19795 ft | 457 kts | 75° |
| 2026-04-27 16:40 | 25.34933 | 82.37942 | 19075 ft | 453 kts | 75° |
| 2026-04-27 16:41 | 25.35653 | 82.41335 | 18193 ft | 454 kts | 75° |
| 2026-04-27 16:41 | 25.36374 | 82.44744 | 17206 ft | 455 kts | 75° |
| 2026-04-27 16:41 | 25.37093 | 82.48152 | 16207 ft | 454 kts | 75° |
| 2026-04-27 16:41 | 25.37806 | 82.51542 | 15251 ft | 453 kts | 75° |
| 2026-04-27 16:42 | 25.38520 | 82.54946 | 14312 ft | 452 kts | 75° |
| 2026-04-27 16:42 | 25.39227 | 82.58320 | 13408 ft | 450 kts | 75° |
| 2026-04-27 16:42 | 25.39931 | 82.61683 | 12413 ft | 447 kts | 75° |
| 2026-04-27 16:42 | 25.40624 | 82.64998 | 11439 ft | 436 kts | 75° |
| 2026-04-27 16:43 | 25.41298 | 82.68217 | 10548 ft | 421 kts | 75° |
| 2026-04-27 16:43 | 25.41947 | 82.71295 | 9884 ft | 403 kts | 74° |
| 2026-04-27 16:43 | 25.42568 | 82.74214 | 9313 ft | 384 kts | 74° |
| 2026-04-27 16:43 | 25.43169 | 82.77012 | 8955 ft | 361 kts | 74° |
| 2026-04-27 16:44 | 25.43738 | 82.79632 | 8718 ft | 338 kts | 73° |
| 2026-04-27 16:44 | 25.44280 | 82.82089 | 8482 ft | 319 kts | 73° |
| 2026-04-27 16:44 | 25.44800 | 82.84441 | 8045 ft | 310 kts | 74° |
| 2026-04-27 16:44 | 25.45043 | 82.86789 | 7577 ft | 306 kts | 85° |
| 2026-04-27 16:45 | 25.45054 | 82.89130 | 7108 ft | 302 kts | 89° |
| 2026-04-27 16:45 | 25.44991 | 82.91415 | 6657 ft | 298 kts | 90° |
| 2026-04-27 16:45 | 25.44899 | 82.93674 | 6209 ft | 293 kts | 91° |
| 2026-04-27 16:45 | 25.44793 | 82.95922 | 5741 ft | 289 kts | 91° |
| 2026-04-27 16:46 | 25.44682 | 82.98138 | 5259 ft | 285 kts | 92° |
| 2026-04-27 16:46 | 25.44572 | 83.00320 | 4788 ft | 282 kts | 93° |
| 2026-04-27 16:46 | 25.44463 | 83.02470 | 4320 ft | 278 kts | 94° |
| 2026-04-27 16:46 | 25.44350 | 83.04568 | 3853 ft | 273 kts | 94° |
| 2026-04-27 16:47 | 25.44239 | 83.06655 | 3379 ft | 269 kts | 94° |
| 2026-04-27 16:47 | 25.43990 | 83.08648 | 3111 ft | 254 kts | 111° |
| 2026-04-27 16:47 | 25.43050 | 83.10186 | 2958 ft | 235 kts | 142° |
| 2026-04-27 16:47 | 25.41636 | 83.10977 | 2824 ft | 222 kts | 168° |
| 2026-04-27 16:48 | 25.40159 | 83.10856 | 2698 ft | 209 kts | 202° |
| 2026-04-27 16:48 | 25.39112 | 83.09858 | 2665 ft | 197 kts | 240° |
| 2026-04-27 16:48 | 25.38845 | 83.08415 | 2657 ft | 197 kts | 276° |
| 2026-04-27 16:49 | 25.40030 | 83.05676 | 2658 ft | 201 kts | 301° |
| 2026-04-27 16:49 | 25.40762 | 83.04359 | 2587 ft | 202 kts | 301° |
| 2026-04-27 16:49 | 25.41490 | 83.03030 | 2319 ft | 202 kts | 302° |
| 2026-04-27 16:49 | 25.42203 | 83.01690 | 2031 ft | 201 kts | 301° |
| 2026-04-27 16:50 | 25.42902 | 83.00346 | 1761 ft | 200 kts | 301° |
| 2026-04-27 16:50 | 25.43587 | 82.98999 | 1672 ft | 203 kts | 301° |
| 2026-04-27 16:50 | 25.44258 | 82.97627 | 1662 ft | 204 kts | 296° |
| 2026-04-27 16:50 | 25.44771 | 82.96153 | 1662 ft | 206 kts | 285° |
| 2026-04-27 16:51 | 25.44902 | 82.94597 | 1537 ft | 204 kts | 269° |
| 2026-04-27 16:51 | 25.44885 | 82.93062 | 1283 ft | 193 kts | 271° |
| 2026-04-27 16:51 | 25.44957 | 82.91641 | 1031 ft | 177 kts | 275° |
| 2026-04-27 16:51 | 25.45036 | 82.90339 | 810 ft | 165 kts | 272° |
| 2026-04-27 16:52 | 25.45089 | 82.89092 | 593 ft | 161 kts | 272° |
| 2026-04-27 16:52 | 25.45138 | 82.87851 | 470 ft | 162 kts | 273° |
| 2026-04-27 16:52 | 25.45195 | 82.86595 | 311 ft | 159 kts | 273° |
| 2026-04-27 16:52 | 25.45247 | 82.85472 | 349 ft | 129 kts | 272° |
| 2026-04-27 16:53 | 25.45269 | 82.84536 | 282 ft | 121 kts | 266° |
| 2026-04-27 16:53 | 25.45249 | 82.84205 | 288 ft | 0 kts | 13° |
| 2026-04-27 16:53 | 25.44744 | 82.85611 | 280 ft | 375 kts | 13° |
| 2026-04-27 16:53 | 25.45029 | 82.85826 | 280 ft | 0 kts | 13° |
| 2026-04-27 16:54 | 25.45250 | 82.85668 | 280 ft | 0 kts | 321° |
| 2026-04-27 16:54 | 25.44972 | 82.85675 | 278 ft | 0 kts | 192° |